sensor_id;sensor_type;location;lat;lon;timestamp;temperature;humidity
10249;DHT22;5169;50.560;9.714;2022-12-20T00:01:10;3.70;99.90
10249;DHT22;5169;50.560;9.714;2022-12-20T00:03:36;3.70;99.90
10249;DHT22;5169;50.560;9.714;2022-12-20T00:06:02;3.60;99.90
10249;DHT22;5169;50.560;9.714;2022-12-20T00:08:29;3.60;99.90
10249;DHT22;5169;50.560;9.714;2022-12-20T00:10:54;3.70;99.90
10249;DHT22;5169;50.560;9.714;2022-12-20T00:13:20;3.60;99.90
10249;DHT22;5169;50.560;9.714;2022-12-20T00:15:46;3.60;99.90
10249;DHT22;5169;50.560;9.714;2022-12-20T00:18:11;3.70;99.90
10249;DHT22;5169;50.560;9.714;2022-12-20T00:20:44;3.80;99.90
10249;DHT22;5169;50.560;9.714;2022-12-20T00:23:10;3.90;99.90
10249;DHT22;5169;50.560;9.714;2022-12-20T00:25:35;3.90;99.90
10249;DHT22;5169;50.560;9.714;2022-12-20T00:28:04;3.80;99.90
10249;DHT22;5169;50.560;9.714;2022-12-20T00:30:32;3.80;99.90
10249;DHT22;5169;50.560;9.714;2022-12-20T00:32:58;3.80;99.90
10249;DHT22;5169;50.560;9.714;2022-12-20T00:35:24;3.60;99.90
10249;DHT22;5169;50.560;9.714;2022-12-20T00:37:49;3.70;99.90
10249;DHT22;5169;50.560;9.714;2022-12-20T00:40:16;3.60;99.90
10249;DHT22;5169;50.560;9.714;2022-12-20T00:42:41;3.60;99.90
10249;DHT22;5169;50.560;9.714;2022-12-20T00:45:07;3.60;99.90
10249;DHT22;5169;50.560;9.714;2022-12-20T00:47:33;3.60;99.90
10249;DHT22;5169;50.560;9.714;2022-12-20T00:50:04;3.50;99.90
10249;DHT22;5169;50.560;9.714;2022-12-20T00:52:30;3.60;99.90
10249;DHT22;5169;50.560;9.714;2022-12-20T00:55:06;3.70;99.90
10249;DHT22;5169;50.560;9.714;2022-12-20T00:57:32;3.70;99.90
10249;DHT22;5169;50.560;9.714;2022-12-20T00:59:57;3.70;99.90
10249;DHT22;5169;50.560;9.714;2022-12-20T01:02:23;3.80;99.90
10249;DHT22;5169;50.560;9.714;2022-12-20T01:04:55;3.90;99.90
10249;DHT22;5169;50.560;9.714;2022-12-20T01:07:25;3.90;99.90
10249;DHT22;5169;50.560;9.714;2022-12-20T01:09:51;3.90;99.90
10249;DHT22;5169;50.560;9.714;2022-12-20T01:12:16;3.90;99.90
10249;DHT22;5169;50.560;9.714;2022-12-20T01:14:43;4.00;99.90
10249;DHT22;5169;50.560;9.714;2022-12-20T01:17:08;4.10;99.90
10249;DHT22;5169;50.560;9.714;2022-12-20T01:19:36;4.10;99.90
10249;DHT22;5169;50.560;9.714;2022-12-20T01:22:04;4.10;99.90
10249;DHT22;5169;50.560;9.714;2022-12-20T01:24:30;4.10;99.90
10249;DHT22;5169;50.560;9.714;2022-12-20T01:26:55;4.10;99.90
10249;DHT22;5169;50.560;9.714;2022-12-20T01:29:24;4.20;99.90
10249;DHT22;5169;50.560;9.714;2022-12-20T01:31:50;4.30;99.90
10249;DHT22;5169;50.560;9.714;2022-12-20T01:34:18;4.30;99.90
10249;DHT22;5169;50.560;9.714;2022-12-20T01:36:43;4.30;99.90
10249;DHT22;5169;50.560;9.714;2022-12-20T01:39:14;4.30;99.90
10249;DHT22;5169;50.560;9.714;2022-12-20T01:41:42;4.30;99.90
10249;DHT22;5169;50.560;9.714;2022-12-20T01:46:46;4.40;99.90
10249;DHT22;5169;50.560;9.714;2022-12-20T01:49:16;4.40;99.90
10249;DHT22;5169;50.560;9.714;2022-12-20T01:51:46;4.50;99.90
10249;DHT22;5169;50.560;9.714;2022-12-20T01:54:36;4.50;99.90
10249;DHT22;5169;50.560;9.714;2022-12-20T01:57:07;4.50;99.90
10249;DHT22;5169;50.560;9.714;2022-12-20T01:59:36;4.50;99.90
10249;DHT22;5169;50.560;9.714;2022-12-20T02:02:08;4.50;99.90
10249;DHT22;5169;50.560;9.714;2022-12-20T02:04:35;4.60;99.90
10249;DHT22;5169;50.560;9.714;2022-12-20T02:07:04;4.60;99.90
10249;DHT22;5169;50.560;9.714;2022-12-20T02:09:35;4.50;99.90
10249;DHT22;5169;50.560;9.714;2022-12-20T02:12:24;4.50;99.90
10249;DHT22;5169;50.560;9.714;2022-12-20T02:29:35;4.60;99.90
10249;DHT22;5169;50.560;9.714;2022-12-20T02:32:13;4.50;99.90
10249;DHT22;5169;50.560;9.714;2022-12-20T02:34:41;4.50;99.90
10249;DHT22;5169;50.560;9.714;2022-12-20T02:37:08;4.50;99.90
10249;DHT22;5169;50.560;9.714;2022-12-20T02:39:36;4.50;99.90
10249;DHT22;5169;50.560;9.714;2022-12-20T02:42:06;4.50;99.90
10249;DHT22;5169;50.560;9.714;2022-12-20T02:44:40;4.50;99.90
10249;DHT22;5169;50.560;9.714;2022-12-20T02:50:21;4.40;99.90
10249;DHT22;5169;50.560;9.714;2022-12-20T02:52:48;4.40;99.90
10249;DHT22;5169;50.560;9.714;2022-12-20T02:55:15;4.40;99.90
10249;DHT22;5169;50.560;9.714;2022-12-20T02:57:48;4.50;99.90
10249;DHT22;5169;50.560;9.714;2022-12-20T03:00:21;4.60;99.90
10249;DHT22;5169;50.560;9.714;2022-12-20T03:02:48;4.50;99.90
10249;DHT22;5169;50.560;9.714;2022-12-20T03:05:37;4.50;99.90
10249;DHT22;5169;50.560;9.714;2022-12-20T03:08:07;4.60;99.90
10249;DHT22;5169;50.560;9.714;2022-12-20T03:10:35;4.60;99.90
10249;DHT22;5169;50.560;9.714;2022-12-20T03:13:03;4.60;99.90
10249;DHT22;5169;50.560;9.714;2022-12-20T03:15:29;4.50;99.90
10249;DHT22;5169;50.560;9.714;2022-12-20T03:17:55;4.50;99.90
10249;DHT22;5169;50.560;9.714;2022-12-20T03:20:20;4.60;99.90
10249;DHT22;5169;50.560;9.714;2022-12-20T03:22:48;4.70;99.90
10249;DHT22;5169;50.560;9.714;2022-12-20T03:25:16;4.80;99.90
10249;DHT22;5169;50.560;9.714;2022-12-20T03:27:42;4.90;99.90
10249;DHT22;5169;50.560;9.714;2022-12-20T03:30:08;5.10;99.90
10249;DHT22;5169;50.560;9.714;2022-12-20T03:32:34;5.10;99.90
10249;DHT22;5169;50.560;9.714;2022-12-20T03:34:59;5.10;99.90
10249;DHT22;5169;50.560;9.714;2022-12-20T03:37:25;5.10;99.90
10249;DHT22;5169;50.560;9.714;2022-12-20T03:39:51;5.10;99.90
10249;DHT22;5169;50.560;9.714;2022-12-20T03:42:17;5.10;99.90
10249;DHT22;5169;50.560;9.714;2022-12-20T03:44:42;5.10;99.90
10249;DHT22;5169;50.560;9.714;2022-12-20T03:47:08;5.10;99.90
10249;DHT22;5169;50.560;9.714;2022-12-20T03:49:36;5.10;99.90
10249;DHT22;5169;50.560;9.714;2022-12-20T03:52:01;5.10;99.90
10249;DHT22;5169;50.560;9.714;2022-12-20T03:54:27;5.10;99.90
10249;DHT22;5169;50.560;9.714;2022-12-20T03:56:55;5.10;99.90
10249;DHT22;5169;50.560;9.714;2022-12-20T03:59:21;5.20;99.90
10249;DHT22;5169;50.560;9.714;2022-12-20T04:01:46;5.20;99.90
10249;DHT22;5169;50.560;9.714;2022-12-20T04:04:13;5.20;99.90
10249;DHT22;5169;50.560;9.714;2022-12-20T04:06:40;5.10;99.90
10249;DHT22;5169;50.560;9.714;2022-12-20T04:09:06;5.10;99.90
10249;DHT22;5169;50.560;9.714;2022-12-20T04:11:32;5.10;99.90
10249;DHT22;5169;50.560;9.714;2022-12-20T04:13:58;5.00;99.90
10249;DHT22;5169;50.560;9.714;2022-12-20T04:16:25;5.00;99.90
10249;DHT22;5169;50.560;9.714;2022-12-20T04:18:52;4.90;99.90
10249;DHT22;5169;50.560;9.714;2022-12-20T04:21:22;4.90;99.90
10249;DHT22;5169;50.560;9.714;2022-12-20T04:23:50;4.90;99.90
10249;DHT22;5169;50.560;9.714;2022-12-20T04:26:16;4.90;99.90
10249;DHT22;5169;50.560;9.714;2022-12-20T04:28:42;4.80;99.90
10249;DHT22;5169;50.560;9.714;2022-12-20T04:31:08;4.90;99.90
10249;DHT22;5169;50.560;9.714;2022-12-20T04:33:35;4.90;99.90
10249;DHT22;5169;50.560;9.714;2022-12-20T04:36:01;4.90;99.90
10249;DHT22;5169;50.560;9.714;2022-12-20T04:38:27;4.90;99.90
10249;DHT22;5169;50.560;9.714;2022-12-20T04:40:54;5.00;99.90
10249;DHT22;5169;50.560;9.714;2022-12-20T04:43:21;5.00;99.90
10249;DHT22;5169;50.560;9.714;2022-12-20T04:45:48;5.00;99.90
10249;DHT22;5169;50.560;9.714;2022-12-20T04:48:14;4.90;99.90
10249;DHT22;5169;50.560;9.714;2022-12-20T04:50:46;5.00;99.90
10249;DHT22;5169;50.560;9.714;2022-12-20T04:53:12;4.90;99.90
10249;DHT22;5169;50.560;9.714;2022-12-20T04:55:56;4.90;99.90
10249;DHT22;5169;50.560;9.714;2022-12-20T04:58:22;4.90;99.90
10249;DHT22;5169;50.560;9.714;2022-12-20T05:00:50;4.90;99.90
10249;DHT22;5169;50.560;9.714;2022-12-20T05:03:20;4.80;99.90
10249;DHT22;5169;50.560;9.714;2022-12-20T05:05:49;4.90;99.90
10249;DHT22;5169;50.560;9.714;2022-12-20T05:08:14;4.80;99.90
10249;DHT22;5169;50.560;9.714;2022-12-20T05:10:41;4.80;99.90
10249;DHT22;5169;50.560;9.714;2022-12-20T05:13:07;4.80;99.90
10249;DHT22;5169;50.560;9.714;2022-12-20T05:15:33;4.80;99.90
10249;DHT22;5169;50.560;9.714;2022-12-20T05:17:58;4.70;99.90
10249;DHT22;5169;50.560;9.714;2022-12-20T05:20:30;4.70;99.90
10249;DHT22;5169;50.560;9.714;2022-12-20T05:23:01;4.70;99.90
10249;DHT22;5169;50.560;9.714;2022-12-20T05:25:48;4.70;99.90
10249;DHT22;5169;50.560;9.714;2022-12-20T05:28:34;4.70;99.90
10249;DHT22;5169;50.560;9.714;2022-12-20T05:31:00;4.70;99.90
10249;DHT22;5169;50.560;9.714;2022-12-20T05:33:28;4.70;99.90
10249;DHT22;5169;50.560;9.714;2022-12-20T05:35:56;4.80;99.90
10249;DHT22;5169;50.560;9.714;2022-12-20T05:38:24;4.80;99.90
10249;DHT22;5169;50.560;9.714;2022-12-20T05:40:50;4.80;99.90
10249;DHT22;5169;50.560;9.714;2022-12-20T05:43:17;4.80;99.90
10249;DHT22;5169;50.560;9.714;2022-12-20T05:45:47;4.80;99.90
10249;DHT22;5169;50.560;9.714;2022-12-20T05:48:15;4.70;99.90
10249;DHT22;5169;50.560;9.714;2022-12-20T05:50:41;4.70;99.90
10249;DHT22;5169;50.560;9.714;2022-12-20T05:53:14;4.70;99.90
10249;DHT22;5169;50.560;9.714;2022-12-20T05:55:46;4.70;99.90
10249;DHT22;5169;50.560;9.714;2022-12-20T05:58:14;4.70;99.90
10249;DHT22;5169;50.560;9.714;2022-12-20T06:00:41;4.70;99.90
10249;DHT22;5169;50.560;9.714;2022-12-20T06:03:07;4.70;99.90
10249;DHT22;5169;50.560;9.714;2022-12-20T06:05:35;4.80;99.90
10249;DHT22;5169;50.560;9.714;2022-12-20T06:08:02;4.80;99.90
10249;DHT22;5169;50.560;9.714;2022-12-20T06:10:28;4.90;99.90
10249;DHT22;5169;50.560;9.714;2022-12-20T06:12:56;4.90;99.90
10249;DHT22;5169;50.560;9.714;2022-12-20T06:15:22;4.90;99.90
10249;DHT22;5169;50.560;9.714;2022-12-20T06:17:47;5.00;99.90
10249;DHT22;5169;50.560;9.714;2022-12-20T06:20:15;5.00;99.90
10249;DHT22;5169;50.560;9.714;2022-12-20T06:22:41;5.10;99.90
10249;DHT22;5169;50.560;9.714;2022-12-20T06:25:07;5.10;99.90
10249;DHT22;5169;50.560;9.714;2022-12-20T06:27:35;5.00;99.90
10249;DHT22;5169;50.560;9.714;2022-12-20T06:30:01;5.00;99.90
10249;DHT22;5169;50.560;9.714;2022-12-20T06:32:31;5.00;99.90
10249;DHT22;5169;50.560;9.714;2022-12-20T06:35:02;5.00;99.90
10249;DHT22;5169;50.560;9.714;2022-12-20T06:37:27;5.00;99.90
10249;DHT22;5169;50.560;9.714;2022-12-20T06:39:53;4.90;99.90
10249;DHT22;5169;50.560;9.714;2022-12-20T06:42:19;4.90;99.90
10249;DHT22;5169;50.560;9.714;2022-12-20T06:44:44;4.90;99.90
10249;DHT22;5169;50.560;9.714;2022-12-20T06:47:10;4.80;99.90
10249;DHT22;5169;50.560;9.714;2022-12-20T06:49:36;4.90;99.90
10249;DHT22;5169;50.560;9.714;2022-12-20T06:52:01;4.90;99.90
10249;DHT22;5169;50.560;9.714;2022-12-20T06:54:29;4.90;99.90
10249;DHT22;5169;50.560;9.714;2022-12-20T06:56:57;4.90;99.90
10249;DHT22;5169;50.560;9.714;2022-12-20T06:59:25;4.90;99.90
10249;DHT22;5169;50.560;9.714;2022-12-20T07:01:53;4.90;99.90
10249;DHT22;5169;50.560;9.714;2022-12-20T07:04:19;4.90;99.90
10249;DHT22;5169;50.560;9.714;2022-12-20T07:06:45;4.90;99.90
10249;DHT22;5169;50.560;9.714;2022-12-20T07:09:11;5.00;99.90
10249;DHT22;5169;50.560;9.714;2022-12-20T07:11:37;5.00;99.90
10249;DHT22;5169;50.560;9.714;2022-12-20T07:14:07;5.20;99.90
10249;DHT22;5169;50.560;9.714;2022-12-20T07:16:35;5.20;99.90
10249;DHT22;5169;50.560;9.714;2022-12-20T07:19:01;5.20;99.90
10249;DHT22;5169;50.560;9.714;2022-12-20T07:21:29;5.30;99.90
10249;DHT22;5169;50.560;9.714;2022-12-20T07:23:55;5.40;99.90
10249;DHT22;5169;50.560;9.714;2022-12-20T07:26:21;5.40;99.90
10249;DHT22;5169;50.560;9.714;2022-12-20T07:28:49;5.50;99.90
10249;DHT22;5169;50.560;9.714;2022-12-20T07:31:15;5.50;99.90
10249;DHT22;5169;50.560;9.714;2022-12-20T07:33:41;5.50;99.90
10249;DHT22;5169;50.560;9.714;2022-12-20T07:36:09;5.60;99.90
10249;DHT22;5169;50.560;9.714;2022-12-20T07:38:38;5.60;99.90
10249;DHT22;5169;50.560;9.714;2022-12-20T07:41:13;5.60;99.90
10249;DHT22;5169;50.560;9.714;2022-12-20T07:43:42;5.50;99.90
10249;DHT22;5169;50.560;9.714;2022-12-20T07:46:08;5.50;99.90
10249;DHT22;5169;50.560;9.714;2022-12-20T07:48:36;5.40;99.90
10249;DHT22;5169;50.560;9.714;2022-12-20T07:51:09;5.40;99.90
10249;DHT22;5169;50.560;9.714;2022-12-20T07:53:46;5.40;99.90
10249;DHT22;5169;50.560;9.714;2022-12-20T07:56:13;5.40;99.90
10249;DHT22;5169;50.560;9.714;2022-12-20T07:58:41;5.30;99.90
10249;DHT22;5169;50.560;9.714;2022-12-20T08:01:08;5.30;99.90
10249;DHT22;5169;50.560;9.714;2022-12-20T08:03:46;5.40;99.90
10249;DHT22;5169;50.560;9.714;2022-12-20T08:06:15;5.40;99.90
10249;DHT22;5169;50.560;9.714;2022-12-20T08:08:48;5.40;99.90
10249;DHT22;5169;50.560;9.714;2022-12-20T08:11:16;5.30;99.90
10249;DHT22;5169;50.560;9.714;2022-12-20T08:13:42;5.30;99.90
10249;DHT22;5169;50.560;9.714;2022-12-20T08:16:10;5.40;99.90
10249;DHT22;5169;50.560;9.714;2022-12-20T08:18:37;5.30;99.90
10249;DHT22;5169;50.560;9.714;2022-12-20T08:21:03;5.30;99.90
10249;DHT22;5169;50.560;9.714;2022-12-20T08:23:28;5.40;99.90
10249;DHT22;5169;50.560;9.714;2022-12-20T08:25:54;5.50;99.90
10249;DHT22;5169;50.560;9.714;2022-12-20T08:28:22;5.50;99.90
10249;DHT22;5169;50.560;9.714;2022-12-20T08:30:48;5.50;99.90
10249;DHT22;5169;50.560;9.714;2022-12-20T08:33:16;5.60;99.90
10249;DHT22;5169;50.560;9.714;2022-12-20T08:35:42;5.60;99.90
10249;DHT22;5169;50.560;9.714;2022-12-20T08:38:07;5.60;99.90
10249;DHT22;5169;50.560;9.714;2022-12-20T08:40:33;5.50;99.90
10249;DHT22;5169;50.560;9.714;2022-12-20T08:42:59;5.50;99.90
10249;DHT22;5169;50.560;9.714;2022-12-20T08:45:24;5.50;99.90
10249;DHT22;5169;50.560;9.714;2022-12-20T08:47:50;5.40;99.90
10249;DHT22;5169;50.560;9.714;2022-12-20T08:50:16;5.50;99.90
10249;DHT22;5169;50.560;9.714;2022-12-20T08:52:41;5.50;99.90
10249;DHT22;5169;50.560;9.714;2022-12-20T08:55:11;5.50;99.90
10249;DHT22;5169;50.560;9.714;2022-12-20T08:57:37;5.60;99.90
10249;DHT22;5169;50.560;9.714;2022-12-20T09:00:03;5.70;99.90
10249;DHT22;5169;50.560;9.714;2022-12-20T09:02:31;5.80;99.90
10249;DHT22;5169;50.560;9.714;2022-12-20T09:05:02;5.80;99.90
10249;DHT22;5169;50.560;9.714;2022-12-20T09:07:30;5.80;99.90
10249;DHT22;5169;50.560;9.714;2022-12-20T09:09:55;5.90;99.90
10249;DHT22;5169;50.560;9.714;2022-12-20T09:12:23;5.90;99.90
10249;DHT22;5169;50.560;9.714;2022-12-20T09:14:49;5.90;99.90
10249;DHT22;5169;50.560;9.714;2022-12-20T09:17:17;5.90;99.90
10249;DHT22;5169;50.560;9.714;2022-12-20T09:19:43;5.90;99.90
10249;DHT22;5169;50.560;9.714;2022-12-20T09:22:09;6.00;99.90
10249;DHT22;5169;50.560;9.714;2022-12-20T09:24:36;6.00;99.90
10249;DHT22;5169;50.560;9.714;2022-12-20T09:27:02;6.10;99.90
10249;DHT22;5169;50.560;9.714;2022-12-20T09:29:28;6.20;99.90
10249;DHT22;5169;50.560;9.714;2022-12-20T09:31:56;6.30;99.90
10249;DHT22;5169;50.560;9.714;2022-12-20T09:34:21;6.40;99.90
10249;DHT22;5169;50.560;9.714;2022-12-20T09:36:52;6.60;99.90
10249;DHT22;5169;50.560;9.714;2022-12-20T09:39:20;6.70;99.90
10249;DHT22;5169;50.560;9.714;2022-12-20T09:41:48;6.80;99.90
10249;DHT22;5169;50.560;9.714;2022-12-20T09:44:24;7.00;99.90
10249;DHT22;5169;50.560;9.714;2022-12-20T09:46:58;7.10;99.90
10249;DHT22;5169;50.560;9.714;2022-12-20T09:49:28;7.20;99.90
10249;DHT22;5169;50.560;9.714;2022-12-20T09:51:59;7.20;99.90
10249;DHT22;5169;50.560;9.714;2022-12-20T09:59:40;7.00;99.90
10249;DHT22;5169;50.560;9.714;2022-12-20T10:02:12;7.00;99.90
10249;DHT22;5169;50.560;9.714;2022-12-20T10:04:39;7.00;99.90
10249;DHT22;5169;50.560;9.714;2022-12-20T10:12:47;6.90;99.90
10249;DHT22;5169;50.560;9.714;2022-12-20T10:15:20;6.90;99.90
10249;DHT22;5169;50.560;9.714;2022-12-20T10:20:24;6.80;99.90
10249;DHT22;5169;50.560;9.714;2022-12-20T10:22:55;6.70;99.90
10249;DHT22;5169;50.560;9.714;2022-12-20T10:25:32;6.80;99.90
10249;DHT22;5169;50.560;9.714;2022-12-20T10:28:01;6.80;99.90
10249;DHT22;5169;50.560;9.714;2022-12-20T10:30:33;6.80;99.90
10249;DHT22;5169;50.560;9.714;2022-12-20T10:33:00;6.90;99.90
10249;DHT22;5169;50.560;9.714;2022-12-20T10:35:39;7.00;99.90
10249;DHT22;5169;50.560;9.714;2022-12-20T10:38:06;7.10;99.90
10249;DHT22;5169;50.560;9.714;2022-12-20T10:40:41;7.20;99.90
10249;DHT22;5169;50.560;9.714;2022-12-20T10:43:27;7.20;99.90
10249;DHT22;5169;50.560;9.714;2022-12-20T10:46:03;7.10;99.90
10249;DHT22;5169;50.560;9.714;2022-12-20T10:48:38;7.10;99.90
10249;DHT22;5169;50.560;9.714;2022-12-20T10:53:48;7.20;99.90
10249;DHT22;5169;50.560;9.714;2022-12-20T10:56:24;7.10;99.90
10249;DHT22;5169;50.560;9.714;2022-12-20T10:58:57;6.90;99.90
10249;DHT22;5169;50.560;9.714;2022-12-20T11:01:31;6.90;99.90
10249;DHT22;5169;50.560;9.714;2022-12-20T11:04:34;6.80;99.90
10249;DHT22;5169;50.560;9.714;2022-12-20T11:07:03;6.70;99.90
10249;DHT22;5169;50.560;9.714;2022-12-20T11:09:33;6.80;99.90
10249;DHT22;5169;50.560;9.714;2022-12-20T11:14:30;6.80;99.90
10249;DHT22;5169;50.560;9.714;2022-12-20T11:16:57;6.80;99.90
10249;DHT22;5169;50.560;9.714;2022-12-20T11:28:34;6.80;99.90
10249;DHT22;5169;50.560;9.714;2022-12-20T11:39:50;6.80;99.90
10249;DHT22;5169;50.560;9.714;2022-12-20T11:42:46;6.80;99.90
10249;DHT22;5169;50.560;9.714;2022-12-20T11:54:02;6.90;99.90
10249;DHT22;5169;50.560;9.714;2022-12-20T11:56:37;6.80;99.90
10249;DHT22;5169;50.560;9.714;2022-12-20T12:02:01;6.70;99.90
10249;DHT22;5169;50.560;9.714;2022-12-20T12:04:31;6.70;99.90
10249;DHT22;5169;50.560;9.714;2022-12-20T12:15:32;6.70;99.90
10249;DHT22;5169;50.560;9.714;2022-12-20T12:18:42;6.70;99.90
10249;DHT22;5169;50.560;9.714;2022-12-20T12:26:33;6.60;99.90
10249;DHT22;5169;50.560;9.714;2022-12-20T12:31:50;6.60;99.90
10249;DHT22;5169;50.560;9.714;2022-12-20T12:42:30;6.80;99.90
10249;DHT22;5169;50.560;9.714;2022-12-20T12:45:02;6.90;99.90
10249;DHT22;5169;50.560;9.714;2022-12-20T12:47:39;6.80;99.90
10249;DHT22;5169;50.560;9.714;2022-12-20T12:50:22;6.80;99.90
10249;DHT22;5169;50.560;9.714;2022-12-20T12:52:56;6.60;99.90
10249;DHT22;5169;50.560;9.714;2022-12-20T12:55:43;6.50;99.90
10249;DHT22;5169;50.560;9.714;2022-12-20T13:03:16;6.80;99.90
10249;DHT22;5169;50.560;9.714;2022-12-20T13:11:37;6.80;99.90
10249;DHT22;5169;50.560;9.714;2022-12-20T13:19:33;6.60;99.90
10249;DHT22;5169;50.560;9.714;2022-12-20T13:30:00;6.60;99.90
10249;DHT22;5169;50.560;9.714;2022-12-20T13:32:55;6.50;99.90
10249;DHT22;5169;50.560;9.714;2022-12-20T13:41:01;6.40;99.90
10249;DHT22;5169;50.560;9.714;2022-12-20T13:43:44;6.40;99.90
10249;DHT22;5169;50.560;9.714;2022-12-20T13:51:19;6.70;99.90
10249;DHT22;5169;50.560;9.714;2022-12-20T13:53:54;6.70;99.90
10249;DHT22;5169;50.560;9.714;2022-12-20T13:58:58;6.40;99.90
10249;DHT22;5169;50.560;9.714;2022-12-20T14:01:28;6.30;99.90
10249;DHT22;5169;50.560;9.714;2022-12-20T14:03:53;6.30;99.90
10249;DHT22;5169;50.560;9.714;2022-12-20T14:06:21;6.40;99.90
10249;DHT22;5169;50.560;9.714;2022-12-20T14:08:50;6.60;99.90
10249;DHT22;5169;50.560;9.714;2022-12-20T14:11:21;6.60;99.90
10249;DHT22;5169;50.560;9.714;2022-12-20T14:13:58;6.50;99.90
10249;DHT22;5169;50.560;9.714;2022-12-20T14:16:27;6.40;99.90
10249;DHT22;5169;50.560;9.714;2022-12-20T14:21:27;6.30;99.90
10249;DHT22;5169;50.560;9.714;2022-12-20T14:23:57;6.50;99.90
10249;DHT22;5169;50.560;9.714;2022-12-20T14:26:27;6.50;99.90
10249;DHT22;5169;50.560;9.714;2022-12-20T14:28:56;6.40;99.90
10249;DHT22;5169;50.560;9.714;2022-12-20T14:34:05;6.30;99.90
10249;DHT22;5169;50.560;9.714;2022-12-20T14:36:32;6.30;99.90
10249;DHT22;5169;50.560;9.714;2022-12-20T14:38:58;6.20;99.90
10249;DHT22;5169;50.560;9.714;2022-12-20T14:41:36;6.20;99.90
10249;DHT22;5169;50.560;9.714;2022-12-20T14:44:15;6.30;99.90
10249;DHT22;5169;50.560;9.714;2022-12-20T14:47:12;6.40;99.90
10249;DHT22;5169;50.560;9.714;2022-12-20T14:50:05;6.40;99.90
10249;DHT22;5169;50.560;9.714;2022-12-20T14:52:37;6.40;99.90
10249;DHT22;5169;50.560;9.714;2022-12-20T14:55:10;6.40;99.90
10249;DHT22;5169;50.560;9.714;2022-12-20T14:57:55;6.40;99.90
10249;DHT22;5169;50.560;9.714;2022-12-20T15:10:41;6.50;99.90
10249;DHT22;5169;50.560;9.714;2022-12-20T15:13:11;6.30;99.90
10249;DHT22;5169;50.560;9.714;2022-12-20T15:15:38;6.30;99.90
10249;DHT22;5169;50.560;9.714;2022-12-20T15:18:17;6.30;99.90
10249;DHT22;5169;50.560;9.714;2022-12-20T15:20:51;6.20;99.90
10249;DHT22;5169;50.560;9.714;2022-12-20T15:23:21;6.10;99.90
10249;DHT22;5169;50.560;9.714;2022-12-20T15:25:49;6.10;99.90
10249;DHT22;5169;50.560;9.714;2022-12-20T15:28:20;6.10;99.90
10249;DHT22;5169;50.560;9.714;2022-12-20T15:30:52;6.10;99.90
10249;DHT22;5169;50.560;9.714;2022-12-20T15:33:22;6.20;99.90
10249;DHT22;5169;50.560;9.714;2022-12-20T15:35:52;6.20;99.90
10249;DHT22;5169;50.560;9.714;2022-12-20T15:38:23;6.30;99.90
10249;DHT22;5169;50.560;9.714;2022-12-20T15:40:52;6.30;99.90
10249;DHT22;5169;50.560;9.714;2022-12-20T15:43:22;6.20;99.90
10249;DHT22;5169;50.560;9.714;2022-12-20T15:45:54;6.10;99.90
10249;DHT22;5169;50.560;9.714;2022-12-20T15:48:22;6.10;99.90
10249;DHT22;5169;50.560;9.714;2022-12-20T15:50:56;6.20;99.90
10249;DHT22;5169;50.560;9.714;2022-12-20T15:53:25;6.30;99.90
10249;DHT22;5169;50.560;9.714;2022-12-20T15:55:54;6.30;99.90
10249;DHT22;5169;50.560;9.714;2022-12-20T15:58:21;6.30;99.90
10249;DHT22;5169;50.560;9.714;2022-12-20T16:00:48;6.20;99.90
10249;DHT22;5169;50.560;9.714;2022-12-20T16:03:22;6.20;99.90
10249;DHT22;5169;50.560;9.714;2022-12-20T16:05:48;6.20;99.90
10249;DHT22;5169;50.560;9.714;2022-12-20T16:08:16;6.20;99.90
10249;DHT22;5169;50.560;9.714;2022-12-20T16:10:46;6.20;99.90
10249;DHT22;5169;50.560;9.714;2022-12-20T16:13:19;6.20;99.90
10249;DHT22;5169;50.560;9.714;2022-12-20T16:15:48;6.20;99.90
10249;DHT22;5169;50.560;9.714;2022-12-20T16:18:16;6.30;99.90
10249;DHT22;5169;50.560;9.714;2022-12-20T16:20:43;6.40;99.90
10249;DHT22;5169;50.560;9.714;2022-12-20T16:23:17;6.40;99.90
10249;DHT22;5169;50.560;9.714;2022-12-20T16:25:43;6.40;99.90
10249;DHT22;5169;50.560;9.714;2022-12-20T16:28:11;6.30;99.90
10249;DHT22;5169;50.560;9.714;2022-12-20T16:30:39;6.30;99.90
10249;DHT22;5169;50.560;9.714;2022-12-20T16:33:05;6.30;99.90
10249;DHT22;5169;50.560;9.714;2022-12-20T16:35:34;6.30;99.90
10249;DHT22;5169;50.560;9.714;2022-12-20T16:38:02;6.20;99.90
10249;DHT22;5169;50.560;9.714;2022-12-20T16:40:31;6.20;99.90
10249;DHT22;5169;50.560;9.714;2022-12-20T16:42:58;6.30;99.90
10249;DHT22;5169;50.560;9.714;2022-12-20T16:45:31;6.30;99.90
10249;DHT22;5169;50.560;9.714;2022-12-20T16:47:58;6.40;99.90
10249;DHT22;5169;50.560;9.714;2022-12-20T16:50:25;6.30;99.90
10249;DHT22;5169;50.560;9.714;2022-12-20T16:52:52;6.30;99.90
10249;DHT22;5169;50.560;9.714;2022-12-20T16:55:23;6.20;99.90
10249;DHT22;5169;50.560;9.714;2022-12-20T16:57:52;6.20;99.90
10249;DHT22;5169;50.560;9.714;2022-12-20T17:00:23;6.10;99.90
10249;DHT22;5169;50.560;9.714;2022-12-20T17:02:49;6.00;99.90
10249;DHT22;5169;50.560;9.714;2022-12-20T17:07:51;6.10;99.90
10249;DHT22;5169;50.560;9.714;2022-12-20T17:10:17;6.10;99.90
10249;DHT22;5169;50.560;9.714;2022-12-20T17:12:45;6.00;99.90
10249;DHT22;5169;50.560;9.714;2022-12-20T17:15:18;6.00;99.90
10249;DHT22;5169;50.560;9.714;2022-12-20T17:17:45;6.10;99.90
10249;DHT22;5169;50.560;9.714;2022-12-20T17:20:11;6.00;99.90
10249;DHT22;5169;50.560;9.714;2022-12-20T17:22:37;6.00;99.90
10249;DHT22;5169;50.560;9.714;2022-12-20T17:25:03;5.90;99.90
10249;DHT22;5169;50.560;9.714;2022-12-20T17:27:29;6.00;99.90
10249;DHT22;5169;50.560;9.714;2022-12-20T17:29:55;6.00;99.90
10249;DHT22;5169;50.560;9.714;2022-12-20T17:32:22;6.00;99.90
10249;DHT22;5169;50.560;9.714;2022-12-20T17:34:51;6.10;99.90
10249;DHT22;5169;50.560;9.714;2022-12-20T17:37:19;6.00;99.90
10249;DHT22;5169;50.560;9.714;2022-12-20T17:39:45;6.00;99.90
10249;DHT22;5169;50.560;9.714;2022-12-20T17:42:14;6.00;99.90
10249;DHT22;5169;50.560;9.714;2022-12-20T17:44:40;6.00;99.90
10249;DHT22;5169;50.560;9.714;2022-12-20T17:47:06;5.90;99.90
10249;DHT22;5169;50.560;9.714;2022-12-20T17:49:35;6.00;99.90
10249;DHT22;5169;50.560;9.714;2022-12-20T17:52:01;6.00;99.90
10249;DHT22;5169;50.560;9.714;2022-12-20T17:54:29;6.00;99.90
10249;DHT22;5169;50.560;9.714;2022-12-20T17:56:57;6.10;99.90
10249;DHT22;5169;50.560;9.714;2022-12-20T17:59:22;6.10;99.90
10249;DHT22;5169;50.560;9.714;2022-12-20T18:01:50;6.10;99.90
10249;DHT22;5169;50.560;9.714;2022-12-20T18:04:16;6.10;99.90
10249;DHT22;5169;50.560;9.714;2022-12-20T18:06:43;6.10;99.90
10249;DHT22;5169;50.560;9.714;2022-12-20T18:09:19;6.10;99.90
10249;DHT22;5169;50.560;9.714;2022-12-20T18:11:48;6.10;99.90
10249;DHT22;5169;50.560;9.714;2022-12-20T18:14:16;6.10;99.90
10249;DHT22;5169;50.560;9.714;2022-12-20T18:16:42;6.20;99.90
10249;DHT22;5169;50.560;9.714;2022-12-20T18:19:16;6.10;99.90
10249;DHT22;5169;50.560;9.714;2022-12-20T18:21:44;6.10;99.90
10249;DHT22;5169;50.560;9.714;2022-12-20T18:24:14;6.10;99.90
10249;DHT22;5169;50.560;9.714;2022-12-20T18:26:40;6.10;99.90
10249;DHT22;5169;50.560;9.714;2022-12-20T18:29:07;6.10;99.90
10249;DHT22;5169;50.560;9.714;2022-12-20T18:31:33;6.20;99.90
10249;DHT22;5169;50.560;9.714;2022-12-20T18:34:00;6.10;99.90
10249;DHT22;5169;50.560;9.714;2022-12-20T18:36:30;6.10;99.90
10249;DHT22;5169;50.560;9.714;2022-12-20T18:39:00;6.20;99.90
10249;DHT22;5169;50.560;9.714;2022-12-20T18:41:31;6.30;99.90
10249;DHT22;5169;50.560;9.714;2022-12-20T18:43:59;6.20;99.90